CST,Max TemperatureF,Mean TemperatureF,Min TemperatureF,Max Dew PointF,MeanDew PointF,Min DewpointF,Max Humidity, Mean Humidity, Min Humidity, Max Sea Level PressureIn, Mean Sea Level PressureIn, Min Sea Level PressureIn, Max VisibilityMiles, Mean VisibilityMiles, Min VisibilityMiles, Max Wind SpeedMPH, Mean Wind SpeedMPH, Max Gust SpeedMPH,PrecipitationIn, CloudCover, Events, WindDirDegrees
2013-1-1,21,13,5,12,7,0,88,72,53,30.31,30.22,30.12,10,10,10,12,6,,0.00,1,,208
2013-1-2,34,24,14,30,20,10,88,82,73,30.21,30.10,30.05,10,10,10,9,6,,0.00,5,,256
2013-1-3,31,24,18,27,20,14,86,80,68,30.40,30.33,30.22,10,10,10,16,8,23,0.00,5,,289
2013-1-4,36,26,17,23,18,14,89,74,54,30.32,30.21,30.14,10,10,10,12,8,,0.00,0,,198
2013-1-5,37,29,21,32,22,16,91,80,63,30.19,30.07,29.98,10,10,10,23,9,31,0.00,1,,229
2013-1-6,39,26,14,26,20,12,89,75,53,30.33,30.24,30.13,10,10,10,21,10,28,0.00,1,,227
2013-1-7,43,35,27,31,26,22,88,73,55,30.13,30.02,29.94,10,10,7,16,10,23,0.03,0,Rain,167
2013-1-8,45,37,29,32,29,25,88,76,58,30.13,29.94,29.84,10,10,3,20,10,25,0.00,0,,193
2013-1-9,49,39,29,36,30,25,85,73,53,30.43,30.32,30.13,10,10,10,13,6,,0.00,0,,196
2013-1-10,40,37,34,38,32,24,99,81,53,30.32,29.98,29.70,10,6,0,14,8,21,0.02,6,Fog-Rain,137
2013-1-11,54,42,30,48,41,24,99,89,72,29.74,29.53,29.40,10,6,0,24,11,37,0.00,5,Fog-Snow,170
2013-1-12,29,21,12,23,10,4,77,64,53,30.13,30.02,29.75,10,10,10,22,15,37,0.00,2,,300
2013-1-13,22,15,8,6,4,1,77,65,41,30.33,30.21,30.11,10,10,10,14,10,21,0.00,1,,303
2013-1-14,29,18,7,14,8,2,84,64,41,30.45,30.38,30.33,10,10,10,8,4,,0.00,0,,219
2013-1-15,35,25,15,16,12,9,76,60,36,30.35,30.23,30.05,10,10,10,13,7,16,0.00,1,,190
2013-1-16,51,36,22,32,26,16,89,67,47,30.22,30.01,29.91,10,10,10,16,10,22,0.00,1,,269
2013-1-17,37,30,22,32,27,21,96,91,80,30.46,30.37,30.24,10,7,1,10,5,,0.00,2,,260
2013-1-18,54,42,30,32,29,27,88,66,39,30.28,30.04,29.89,10,10,7,25,12,32,0.00,0,,195
2013-1-19,53,39,24,31,27,13,77,58,37,30.33,30.03,29.86,10,10,10,21,11,29,0.00,0,,294
2013-1-20,23,18,12,13,9,5,86,67,49,30.40,30.36,30.31,10,10,10,13,6,20,0.00,3,Snow,351
2013-1-21,15,11,7,11,-2,-8,85,54,42,30.45,30.39,30.35,10,10,10,16,7,22,0.00,7,Snow,323
2013-1-22,23,17,11,12,8,-1,87,75,54,30.38,30.31,30.24,10,8,2,7,3,,0.00,4,Snow,101
2013-1-23,32,22,11,18,12,3,84,68,53,30.49,30.27,30.14,10,10,10,14,8,22,0.00,0,,345
2013-1-24,20,11,2,6,-1,-5,71,56,42,30.54,30.37,30.17,10,10,10,13,9,18,0.00,2,,98
2013-1-25,48,32,15,24,17,6,79,58,37,30.24,30.16,30.11,10,10,10,14,6,17,0.00,0,,295
2013-1-26,47,32,17,25,20,12,89,65,40,30.25,30.15,30.01,10,10,10,16,9,23,0.00,2,,120
2013-1-27,46,40,35,46,37,23,99,93,53,30.01,29.81,29.68,10,3,0,17,11,23,0.20,8,Fog-Rain,155
2013-1-28,47,40,34,48,40,34,99,99,98,29.86,29.73,29.54,2,0,0,10,4,,0.01,8,Fog,108
2013-1-29,41,36,32,41,33,31,100,96,88,29.68,29.62,29.54,10,5,0,17,10,24,0.01,8,Fog-Snow,333
2013-1-30,31,22,14,31,17,10,96,79,62,29.93,29.78,29.60,10,6,1,26,18,37,0.00,7,Snow,313
2013-1-31,17,8,-1,11,-1,-8,77,66,56,30.41,30.18,29.93,10,10,3,30,12,37,0.00,3,,309